sensor_id;sensor_type;location;lat;lon;timestamp;P1;durP1;ratioP1;P2;durP2;ratioP2
21095;SDS011;10706;49.036;12.112;2023-08-12T00:01:42;9.57;;;4.22;;
21095;SDS011;10706;49.036;12.112;2023-08-12T00:04:07;12.00;;;4.60;;
21095;SDS011;10706;49.036;12.112;2023-08-12T00:06:33;15.23;;;4.90;;
21095;SDS011;10706;49.036;12.112;2023-08-12T00:08:59;11.43;;;4.40;;
21095;SDS011;10706;49.036;12.112;2023-08-12T00:11:25;10.07;;;4.30;;
21095;SDS011;10706;49.036;12.112;2023-08-12T00:13:51;12.38;;;4.35;;
21095;SDS011;10706;49.036;12.112;2023-08-12T00:16:16;8.88;;;4.22;;
21095;SDS011;10706;49.036;12.112;2023-08-12T00:18:42;10.70;;;4.45;;
21095;SDS011;10706;49.036;12.112;2023-08-12T00:21:08;12.25;;;4.10;;
21095;SDS011;10706;49.036;12.112;2023-08-12T00:23:41;10.30;;;4.15;;
21095;SDS011;10706;49.036;12.112;2023-08-12T00:26:08;8.50;;;4.15;;
21095;SDS011;10706;49.036;12.112;2023-08-12T00:28:34;8.85;;;4.00;;
21095;SDS011;10706;49.036;12.112;2023-08-12T00:30:59;9.05;;;4.22;;
21095;SDS011;10706;49.036;12.112;2023-08-12T00:33:25;8.95;;;4.10;;
21095;SDS011;10706;49.036;12.112;2023-08-12T00:35:51;9.60;;;4.07;;
21095;SDS011;10706;49.036;12.112;2023-08-12T00:38:17;9.23;;;4.05;;
21095;SDS011;10706;49.036;12.112;2023-08-12T00:40:42;11.50;;;4.00;;
21095;SDS011;10706;49.036;12.112;2023-08-12T00:43:08;10.65;;;5.00;;
21095;SDS011;10706;49.036;12.112;2023-08-12T00:45:35;9.93;;;4.30;;
21095;SDS011;10706;49.036;12.112;2023-08-12T00:48:04;7.28;;;3.55;;
21095;SDS011;10706;49.036;12.112;2023-08-12T00:50:31;10.27;;;4.30;;
21095;SDS011;10706;49.036;12.112;2023-08-12T00:52:57;9.48;;;3.90;;
21095;SDS011;10706;49.036;12.112;2023-08-12T00:55:24;8.75;;;3.80;;
21095;SDS011;10706;49.036;12.112;2023-08-12T00:57:50;8.43;;;3.50;;
21095;SDS011;10706;49.036;12.112;2023-08-12T01:00:16;9.18;;;4.00;;
21095;SDS011;10706;49.036;12.112;2023-08-12T01:02:45;10.07;;;3.80;;
21095;SDS011;10706;49.036;12.112;2023-08-12T01:05:14;11.18;;;4.28;;
21095;SDS011;10706;49.036;12.112;2023-08-12T01:07:41;9.63;;;3.90;;
21095;SDS011;10706;49.036;12.112;2023-08-12T01:10:07;11.63;;;3.70;;
21095;SDS011;10706;49.036;12.112;2023-08-12T01:15:51;9.48;;;4.05;;
21095;SDS011;10706;49.036;12.112;2023-08-12T01:18:18;8.80;;;4.00;;
21095;SDS011;10706;49.036;12.112;2023-08-12T01:20:45;11.02;;;4.28;;
21095;SDS011;10706;49.036;12.112;2023-08-12T01:23:15;7.82;;;3.75;;
21095;SDS011;10706;49.036;12.112;2023-08-12T01:25:41;7.75;;;3.47;;
21095;SDS011;10706;49.036;12.112;2023-08-12T01:28:08;8.90;;;4.22;;
21095;SDS011;10706;49.036;12.112;2023-08-12T01:30:35;12.50;;;4.70;;
21095;SDS011;10706;49.036;12.112;2023-08-12T01:36:00;12.65;;;4.68;;
21095;SDS011;10706;49.036;12.112;2023-08-12T01:38:38;10.23;;;4.43;;
21095;SDS011;10706;49.036;12.112;2023-08-12T01:41:04;12.93;;;4.28;;
21095;SDS011;10706;49.036;12.112;2023-08-12T01:43:34;9.98;;;3.83;;
21095;SDS011;10706;49.036;12.112;2023-08-12T01:46:00;8.70;;;3.75;;
21095;SDS011;10706;49.036;12.112;2023-08-12T01:48:26;9.95;;;3.90;;
21095;SDS011;10706;49.036;12.112;2023-08-12T01:50:52;8.70;;;4.00;;
21095;SDS011;10706;49.036;12.112;2023-08-12T01:53:18;11.05;;;3.95;;
21095;SDS011;10706;49.036;12.112;2023-08-12T01:55:44;13.82;;;3.60;;
21095;SDS011;10706;49.036;12.112;2023-08-12T01:58:10;12.93;;;4.60;;
21095;SDS011;10706;49.036;12.112;2023-08-12T02:00:36;9.18;;;4.07;;
21095;SDS011;10706;49.036;12.112;2023-08-12T02:03:02;11.20;;;4.22;;
21095;SDS011;10706;49.036;12.112;2023-08-12T02:05:28;9.45;;;4.28;;
21095;SDS011;10706;49.036;12.112;2023-08-12T02:07:54;12.73;;;4.55;;
21095;SDS011;10706;49.036;12.112;2023-08-12T02:10:19;13.45;;;4.68;;
21095;SDS011;10706;49.036;12.112;2023-08-12T02:12:45;10.30;;;3.92;;
21095;SDS011;10706;49.036;12.112;2023-08-12T02:15:12;10.88;;;4.07;;
21095;SDS011;10706;49.036;12.112;2023-08-12T02:17:38;9.02;;;3.80;;
21095;SDS011;10706;49.036;12.112;2023-08-12T02:20:04;9.02;;;4.00;;
21095;SDS011;10706;49.036;12.112;2023-08-12T02:22:31;9.40;;;3.63;;
21095;SDS011;10706;49.036;12.112;2023-08-12T02:24:57;10.65;;;3.92;;
21095;SDS011;10706;49.036;12.112;2023-08-12T02:27:23;10.27;;;4.10;;
21095;SDS011;10706;49.036;12.112;2023-08-12T02:29:49;10.52;;;3.88;;
21095;SDS011;10706;49.036;12.112;2023-08-12T02:32:15;9.65;;;4.05;;
21095;SDS011;10706;49.036;12.112;2023-08-12T02:34:41;10.30;;;3.97;;
21095;SDS011;10706;49.036;12.112;2023-08-12T02:37:07;7.68;;;3.60;;
21095;SDS011;10706;49.036;12.112;2023-08-12T02:39:33;12.10;;;3.75;;
21095;SDS011;10706;49.036;12.112;2023-08-12T02:42:00;10.70;;;3.83;;
21095;SDS011;10706;49.036;12.112;2023-08-12T02:44:26;13.05;;;5.15;;
21095;SDS011;10706;49.036;12.112;2023-08-12T02:46:53;9.93;;;4.30;;
21095;SDS011;10706;49.036;12.112;2023-08-12T02:49:19;10.88;;;4.13;;
21095;SDS011;10706;49.036;12.112;2023-08-12T02:51:45;8.55;;;3.80;;
21095;SDS011;10706;49.036;12.112;2023-08-12T02:54:11;10.90;;;3.95;;
21095;SDS011;10706;49.036;12.112;2023-08-12T02:56:37;11.82;;;4.18;;
21095;SDS011;10706;49.036;12.112;2023-08-12T02:59:03;8.73;;;3.88;;
21095;SDS011;10706;49.036;12.112;2023-08-12T03:01:29;8.15;;;4.10;;
21095;SDS011;10706;49.036;12.112;2023-08-12T03:03:55;7.88;;;3.70;;
21095;SDS011;10706;49.036;12.112;2023-08-12T03:06:21;10.98;;;4.10;;
21095;SDS011;10706;49.036;12.112;2023-08-12T03:08:47;9.05;;;4.03;;
21095;SDS011;10706;49.036;12.112;2023-08-12T03:11:13;7.93;;;4.10;;
21095;SDS011;10706;49.036;12.112;2023-08-12T03:13:40;9.25;;;4.10;;
21095;SDS011;10706;49.036;12.112;2023-08-12T03:16:10;10.50;;;4.30;;
21095;SDS011;10706;49.036;12.112;2023-08-12T03:18:38;10.68;;;4.40;;
21095;SDS011;10706;49.036;12.112;2023-08-12T03:21:08;8.45;;;3.88;;
21095;SDS011;10706;49.036;12.112;2023-08-12T03:23:35;14.57;;;4.53;;
21095;SDS011;10706;49.036;12.112;2023-08-12T03:26:01;8.75;;;3.80;;
21095;SDS011;10706;49.036;12.112;2023-08-12T03:28:28;9.75;;;4.10;;
21095;SDS011;10706;49.036;12.112;2023-08-12T03:30:55;10.43;;;4.38;;
21095;SDS011;10706;49.036;12.112;2023-08-12T03:33:21;11.05;;;4.30;;
21095;SDS011;10706;49.036;12.112;2023-08-12T03:35:47;7.82;;;3.88;;
21095;SDS011;10706;49.036;12.112;2023-08-12T03:38:14;12.07;;;4.65;;
21095;SDS011;10706;49.036;12.112;2023-08-12T03:40:40;9.48;;;3.97;;
21095;SDS011;10706;49.036;12.112;2023-08-12T03:43:07;10.25;;;4.40;;
21095;SDS011;10706;49.036;12.112;2023-08-12T03:45:39;9.65;;;4.20;;
21095;SDS011;10706;49.036;12.112;2023-08-12T03:48:09;12.80;;;4.50;;
21095;SDS011;10706;49.036;12.112;2023-08-12T03:50:36;10.13;;;4.60;;
21095;SDS011;10706;49.036;12.112;2023-08-12T03:53:03;14.02;;;4.80;;
21095;SDS011;10706;49.036;12.112;2023-08-12T03:55:30;9.82;;;4.50;;
21095;SDS011;10706;49.036;12.112;2023-08-12T03:57:57;12.13;;;4.82;;
21095;SDS011;10706;49.036;12.112;2023-08-12T04:00:26;11.27;;;4.32;;
21095;SDS011;10706;49.036;12.112;2023-08-12T04:02:53;11.45;;;4.38;;
21095;SDS011;10706;49.036;12.112;2023-08-12T04:05:19;10.82;;;4.50;;
21095;SDS011;10706;49.036;12.112;2023-08-12T04:07:45;10.68;;;4.75;;
21095;SDS011;10706;49.036;12.112;2023-08-12T04:10:11;11.05;;;4.80;;
21095;SDS011;10706;49.036;12.112;2023-08-12T04:12:37;10.90;;;4.03;;
21095;SDS011;10706;49.036;12.112;2023-08-12T04:15:04;12.52;;;4.85;;
21095;SDS011;10706;49.036;12.112;2023-08-12T04:17:31;10.27;;;4.70;;
21095;SDS011;10706;49.036;12.112;2023-08-12T04:19:57;10.05;;;4.68;;
21095;SDS011;10706;49.036;12.112;2023-08-12T04:22:23;10.85;;;5.00;;
21095;SDS011;10706;49.036;12.112;2023-08-12T04:24:49;11.10;;;4.60;;
21095;SDS011;10706;49.036;12.112;2023-08-12T04:27:15;8.68;;;4.13;;
21095;SDS011;10706;49.036;12.112;2023-08-12T04:29:42;10.98;;;4.32;;
21095;SDS011;10706;49.036;12.112;2023-08-12T04:32:10;11.70;;;5.00;;
21095;SDS011;10706;49.036;12.112;2023-08-12T04:34:36;12.73;;;5.40;;
21095;SDS011;10706;49.036;12.112;2023-08-12T04:37:02;10.75;;;5.28;;
21095;SDS011;10706;49.036;12.112;2023-08-12T04:39:28;12.15;;;4.88;;
21095;SDS011;10706;49.036;12.112;2023-08-12T04:41:54;10.02;;;4.80;;
21095;SDS011;10706;49.036;12.112;2023-08-12T04:44:20;10.80;;;5.38;;
21095;SDS011;10706;49.036;12.112;2023-08-12T04:46:46;11.68;;;5.32;;
21095;SDS011;10706;49.036;12.112;2023-08-12T04:49:13;13.70;;;5.70;;
21095;SDS011;10706;49.036;12.112;2023-08-12T04:51:39;14.32;;;5.15;;
21095;SDS011;10706;49.036;12.112;2023-08-12T04:54:04;11.85;;;5.00;;
21095;SDS011;10706;49.036;12.112;2023-08-12T04:56:32;12.25;;;4.82;;
21095;SDS011;10706;49.036;12.112;2023-08-12T04:58:58;13.13;;;5.45;;
21095;SDS011;10706;49.036;12.112;2023-08-12T05:01:24;9.55;;;4.60;;
21095;SDS011;10706;49.036;12.112;2023-08-12T05:03:50;9.48;;;4.68;;
21095;SDS011;10706;49.036;12.112;2023-08-12T05:06:16;10.68;;;5.03;;
21095;SDS011;10706;49.036;12.112;2023-08-12T05:08:42;10.27;;;5.28;;
21095;SDS011;10706;49.036;12.112;2023-08-12T05:11:08;11.18;;;4.88;;
21095;SDS011;10706;49.036;12.112;2023-08-12T05:13:34;9.23;;;4.38;;
21095;SDS011;10706;49.036;12.112;2023-08-12T05:16:00;9.02;;;4.35;;
21095;SDS011;10706;49.036;12.112;2023-08-12T05:18:26;12.23;;;4.57;;
21095;SDS011;10706;49.036;12.112;2023-08-12T05:20:54;11.20;;;4.15;;
21095;SDS011;10706;49.036;12.112;2023-08-12T05:23:20;9.73;;;4.25;;
21095;SDS011;10706;49.036;12.112;2023-08-12T05:25:46;9.98;;;4.72;;
21095;SDS011;10706;49.036;12.112;2023-08-12T05:28:12;9.68;;;4.10;;
21095;SDS011;10706;49.036;12.112;2023-08-12T05:30:38;8.77;;;3.97;;
21095;SDS011;10706;49.036;12.112;2023-08-12T05:33:04;8.68;;;3.80;;
21095;SDS011;10706;49.036;12.112;2023-08-12T05:35:34;9.77;;;3.70;;
21095;SDS011;10706;49.036;12.112;2023-08-12T05:38:01;5.82;;;3.00;;
21095;SDS011;10706;49.036;12.112;2023-08-12T05:40:27;6.45;;;2.97;;
21095;SDS011;10706;49.036;12.112;2023-08-12T05:42:53;7.32;;;3.28;;
21095;SDS011;10706;49.036;12.112;2023-08-12T05:45:19;7.95;;;3.05;;
21095;SDS011;10706;49.036;12.112;2023-08-12T05:47:45;7.13;;;3.22;;
21095;SDS011;10706;49.036;12.112;2023-08-12T05:50:11;6.57;;;2.72;;
21095;SDS011;10706;49.036;12.112;2023-08-12T05:52:37;6.32;;;2.88;;
21095;SDS011;10706;49.036;12.112;2023-08-12T05:55:04;8.85;;;3.00;;
21095;SDS011;10706;49.036;12.112;2023-08-12T05:57:30;10.50;;;3.20;;
21095;SDS011;10706;49.036;12.112;2023-08-12T05:59:56;7.43;;;3.25;;
21095;SDS011;10706;49.036;12.112;2023-08-12T06:02:22;7.63;;;3.40;;
21095;SDS011;10706;49.036;12.112;2023-08-12T06:04:51;8.85;;;3.40;;
21095;SDS011;10706;49.036;12.112;2023-08-12T06:07:17;8.75;;;3.17;;
21095;SDS011;10706;49.036;12.112;2023-08-12T06:09:43;6.90;;;3.40;;
21095;SDS011;10706;49.036;12.112;2023-08-12T06:12:09;11.05;;;3.65;;
21095;SDS011;10706;49.036;12.112;2023-08-12T06:14:37;7.82;;;3.30;;
21095;SDS011;10706;49.036;12.112;2023-08-12T06:17:03;10.02;;;3.40;;
21095;SDS011;10706;49.036;12.112;2023-08-12T06:19:30;8.23;;;3.72;;
21095;SDS011;10706;49.036;12.112;2023-08-12T06:21:56;8.15;;;3.50;;
21095;SDS011;10706;49.036;12.112;2023-08-12T06:24:22;9.27;;;3.50;;
21095;SDS011;10706;49.036;12.112;2023-08-12T06:26:48;10.63;;;3.42;;
21095;SDS011;10706;49.036;12.112;2023-08-12T06:29:14;9.52;;;3.67;;
21095;SDS011;10706;49.036;12.112;2023-08-12T06:31:40;7.10;;;3.50;;
21095;SDS011;10706;49.036;12.112;2023-08-12T06:34:07;10.65;;;3.60;;
21095;SDS011;10706;49.036;12.112;2023-08-12T06:36:33;6.55;;;3.17;;
21095;SDS011;10706;49.036;12.112;2023-08-12T06:38:59;7.78;;;3.03;;
21095;SDS011;10706;49.036;12.112;2023-08-12T06:41:25;6.70;;;3.40;;
21095;SDS011;10706;49.036;12.112;2023-08-12T06:43:50;9.63;;;3.55;;
21095;SDS011;10706;49.036;12.112;2023-08-12T06:46:17;8.55;;;3.55;;
21095;SDS011;10706;49.036;12.112;2023-08-12T06:48:43;9.05;;;3.67;;
21095;SDS011;10706;49.036;12.112;2023-08-12T06:51:09;7.80;;;3.55;;
21095;SDS011;10706;49.036;12.112;2023-08-12T06:53:40;9.90;;;3.03;;
21095;SDS011;10706;49.036;12.112;2023-08-12T06:56:06;9.82;;;3.55;;
21095;SDS011;10706;49.036;12.112;2023-08-12T06:58:32;7.43;;;3.28;;
21095;SDS011;10706;49.036;12.112;2023-08-12T07:00:58;7.53;;;3.35;;
21095;SDS011;10706;49.036;12.112;2023-08-12T07:03:24;8.40;;;3.20;;
21095;SDS011;10706;49.036;12.112;2023-08-12T07:05:51;6.45;;;2.97;;
21095;SDS011;10706;49.036;12.112;2023-08-12T07:08:20;16.25;;;3.92;;
21095;SDS011;10706;49.036;12.112;2023-08-12T07:10:46;6.97;;;3.22;;
21095;SDS011;10706;49.036;12.112;2023-08-12T07:13:11;8.85;;;3.22;;
21095;SDS011;10706;49.036;12.112;2023-08-12T07:15:37;8.70;;;3.60;;
21095;SDS011;10706;49.036;12.112;2023-08-12T07:18:03;9.02;;;3.10;;
21095;SDS011;10706;49.036;12.112;2023-08-12T07:20:29;6.40;;;2.95;;
21095;SDS011;10706;49.036;12.112;2023-08-12T07:22:55;8.23;;;3.00;;
21095;SDS011;10706;49.036;12.112;2023-08-12T07:25:21;8.27;;;3.05;;
21095;SDS011;10706;49.036;12.112;2023-08-12T07:27:48;13.00;;;3.30;;
21095;SDS011;10706;49.036;12.112;2023-08-12T07:30:14;7.35;;;3.40;;
21095;SDS011;10706;49.036;12.112;2023-08-12T07:32:40;9.38;;;3.05;;
21095;SDS011;10706;49.036;12.112;2023-08-12T07:35:06;5.50;;;2.80;;
21095;SDS011;10706;49.036;12.112;2023-08-12T07:37:32;6.70;;;3.00;;
21095;SDS011;10706;49.036;12.112;2023-08-12T07:39:59;8.75;;;3.17;;
21095;SDS011;10706;49.036;12.112;2023-08-12T07:42:25;12.82;;;3.15;;
21095;SDS011;10706;49.036;12.112;2023-08-12T07:44:51;8.68;;;2.70;;
21095;SDS011;10706;49.036;12.112;2023-08-12T07:47:17;7.18;;;2.97;;
21095;SDS011;10706;49.036;12.112;2023-08-12T07:49:44;6.40;;;3.03;;
21095;SDS011;10706;49.036;12.112;2023-08-12T07:52:10;9.32;;;3.22;;
21095;SDS011;10706;49.036;12.112;2023-08-12T07:54:36;7.20;;;3.00;;
21095;SDS011;10706;49.036;12.112;2023-08-12T07:57:03;9.95;;;3.40;;
21095;SDS011;10706;49.036;12.112;2023-08-12T07:59:29;5.30;;;2.80;;
21095;SDS011;10706;49.036;12.112;2023-08-12T08:01:55;5.55;;;2.75;;
21095;SDS011;10706;49.036;12.112;2023-08-12T08:04:21;7.20;;;2.78;;
21095;SDS011;10706;49.036;12.112;2023-08-12T08:06:47;8.80;;;3.28;;
21095;SDS011;10706;49.036;12.112;2023-08-12T08:09:13;5.68;;;2.92;;
21095;SDS011;10706;49.036;12.112;2023-08-12T08:11:39;8.40;;;3.20;;
21095;SDS011;10706;49.036;12.112;2023-08-12T08:14:05;5.60;;;2.80;;
21095;SDS011;10706;49.036;12.112;2023-08-12T08:16:31;8.55;;;3.05;;
21095;SDS011;10706;49.036;12.112;2023-08-12T08:18:57;4.90;;;2.65;;
21095;SDS011;10706;49.036;12.112;2023-08-12T08:21:23;6.28;;;2.47;;
21095;SDS011;10706;49.036;12.112;2023-08-12T08:23:49;6.18;;;2.78;;
21095;SDS011;10706;49.036;12.112;2023-08-12T08:26:15;6.35;;;2.55;;
21095;SDS011;10706;49.036;12.112;2023-08-12T08:28:41;6.55;;;3.08;;
21095;SDS011;10706;49.036;12.112;2023-08-12T08:31:07;6.75;;;2.53;;
21095;SDS011;10706;49.036;12.112;2023-08-12T08:33:34;7.40;;;2.92;;
21095;SDS011;10706;49.036;12.112;2023-08-12T08:36:00;7.28;;;2.75;;
21095;SDS011;10706;49.036;12.112;2023-08-12T08:38:26;7.07;;;3.03;;
21095;SDS011;10706;49.036;12.112;2023-08-12T08:40:52;9.95;;;3.22;;
21095;SDS011;10706;49.036;12.112;2023-08-12T08:43:20;7.20;;;2.88;;
21095;SDS011;10706;49.036;12.112;2023-08-12T08:45:50;7.80;;;3.22;;
21095;SDS011;10706;49.036;12.112;2023-08-12T08:48:19;5.28;;;2.72;;
21095;SDS011;10706;49.036;12.112;2023-08-12T08:50:45;6.60;;;2.90;;
21095;SDS011;10706;49.036;12.112;2023-08-12T08:53:13;5.70;;;2.65;;
21095;SDS011;10706;49.036;12.112;2023-08-12T08:55:40;8.90;;;2.75;;
21095;SDS011;10706;49.036;12.112;2023-08-12T08:58:07;8.32;;;2.72;;
21095;SDS011;10706;49.036;12.112;2023-08-12T09:00:32;5.38;;;2.60;;
21095;SDS011;10706;49.036;12.112;2023-08-12T09:02:59;7.88;;;2.97;;
21095;SDS011;10706;49.036;12.112;2023-08-12T09:05:25;7.40;;;2.53;;
21095;SDS011;10706;49.036;12.112;2023-08-12T09:07:52;7.20;;;3.00;;
21095;SDS011;10706;49.036;12.112;2023-08-12T09:10:20;8.35;;;2.65;;
21095;SDS011;10706;49.036;12.112;2023-08-12T09:12:48;5.43;;;2.50;;
21095;SDS011;10706;49.036;12.112;2023-08-12T09:15:17;7.00;;;2.67;;
21095;SDS011;10706;49.036;12.112;2023-08-12T09:17:44;6.63;;;2.60;;
21095;SDS011;10706;49.036;12.112;2023-08-12T09:20:10;6.88;;;2.58;;
21095;SDS011;10706;49.036;12.112;2023-08-12T09:22:37;6.25;;;2.60;;
21095;SDS011;10706;49.036;12.112;2023-08-12T09:25:04;9.45;;;2.60;;
21095;SDS011;10706;49.036;12.112;2023-08-12T09:27:31;9.98;;;2.85;;
21095;SDS011;10706;49.036;12.112;2023-08-12T09:29:58;5.68;;;2.83;;
21095;SDS011;10706;49.036;12.112;2023-08-12T09:36:53;9.25;;;2.50;;
21095;SDS011;10706;49.036;12.112;2023-08-12T09:39:21;6.25;;;2.55;;
21095;SDS011;10706;49.036;12.112;2023-08-12T09:41:47;6.47;;;2.17;;
21095;SDS011;10706;49.036;12.112;2023-08-12T09:44:16;5.30;;;2.72;;
21095;SDS011;10706;49.036;12.112;2023-08-12T09:46:42;5.70;;;2.80;;
21095;SDS011;10706;49.036;12.112;2023-08-12T09:49:08;5.25;;;2.45;;
21095;SDS011;10706;49.036;12.112;2023-08-12T09:51:35;5.60;;;2.30;;
21095;SDS011;10706;49.036;12.112;2023-08-12T09:54:02;9.32;;;2.42;;
21095;SDS011;10706;49.036;12.112;2023-08-12T09:56:28;5.53;;;2.28;;
21095;SDS011;10706;49.036;12.112;2023-08-12T09:59:01;5.22;;;2.30;;
21095;SDS011;10706;49.036;12.112;2023-08-12T10:01:32;6.78;;;2.50;;
21095;SDS011;10706;49.036;12.112;2023-08-12T10:03:58;9.02;;;2.53;;
21095;SDS011;10706;49.036;12.112;2023-08-12T10:06:25;6.80;;;2.15;;
21095;SDS011;10706;49.036;12.112;2023-08-12T10:08:51;5.00;;;2.30;;
21095;SDS011;10706;49.036;12.112;2023-08-12T10:11:18;6.40;;;2.13;;
21095;SDS011;10706;49.036;12.112;2023-08-12T10:13:45;5.47;;;2.20;;
21095;SDS011;10706;49.036;12.112;2023-08-12T10:16:13;6.15;;;2.30;;
21095;SDS011;10706;49.036;12.112;2023-08-12T10:18:39;6.15;;;1.98;;
21095;SDS011;10706;49.036;12.112;2023-08-12T10:21:09;5.15;;;2.28;;
21095;SDS011;10706;49.036;12.112;2023-08-12T10:23:38;5.30;;;2.20;;
21095;SDS011;10706;49.036;12.112;2023-08-12T10:26:06;8.73;;;2.15;;
21095;SDS011;10706;49.036;12.112;2023-08-12T10:28:33;9.50;;;2.70;;
21095;SDS011;10706;49.036;12.112;2023-08-12T10:31:02;4.70;;;2.20;;
21095;SDS011;10706;49.036;12.112;2023-08-12T10:33:35;5.90;;;2.47;;
21095;SDS011;10706;49.036;12.112;2023-08-12T10:36:03;4.97;;;2.00;;
21095;SDS011;10706;49.036;12.112;2023-08-12T10:38:31;11.38;;;3.53;;
21095;SDS011;10706;49.036;12.112;2023-08-12T10:43:56;3.97;;;2.00;;
21095;SDS011;10706;49.036;12.112;2023-08-12T10:46:36;6.45;;;2.15;;
21095;SDS011;10706;49.036;12.112;2023-08-12T10:49:09;7.10;;;2.15;;
21095;SDS011;10706;49.036;12.112;2023-08-12T10:51:52;8.13;;;2.55;;
21095;SDS011;10706;49.036;12.112;2023-08-12T10:54:26;5.80;;;2.00;;
21095;SDS011;10706;49.036;12.112;2023-08-12T11:02:16;6.93;;;2.25;;
21095;SDS011;10706;49.036;12.112;2023-08-12T11:05:03;4.70;;;2.08;;
21095;SDS011;10706;49.036;12.112;2023-08-12T11:07:43;3.17;;;2.00;;
21095;SDS011;10706;49.036;12.112;2023-08-12T11:10:25;6.75;;;2.35;;
21095;SDS011;10706;49.036;12.112;2023-08-12T11:12:56;2.72;;;1.70;;
21095;SDS011;10706;49.036;12.112;2023-08-12T11:18:07;5.38;;;2.10;;
21095;SDS011;10706;49.036;12.112;2023-08-12T11:20:35;4.28;;;1.92;;
21095;SDS011;10706;49.036;12.112;2023-08-12T11:23:02;5.55;;;1.90;;
21095;SDS011;10706;49.036;12.112;2023-08-12T11:25:29;5.00;;;2.13;;
21095;SDS011;10706;49.036;12.112;2023-08-12T11:27:57;2.63;;;1.73;;
21095;SDS011;10706;49.036;12.112;2023-08-12T11:30:23;7.28;;;2.40;;
21095;SDS011;10706;49.036;12.112;2023-08-12T11:32:50;6.32;;;2.13;;
21095;SDS011;10706;49.036;12.112;2023-08-12T11:35:18;4.47;;;2.13;;
21095;SDS011;10706;49.036;12.112;2023-08-12T11:37:47;4.82;;;1.98;;
21095;SDS011;10706;49.036;12.112;2023-08-12T11:40:18;5.82;;;1.92;;
21095;SDS011;10706;49.036;12.112;2023-08-12T11:42:47;6.55;;;2.28;;
21095;SDS011;10706;49.036;12.112;2023-08-12T11:45:15;5.60;;;2.20;;
21095;SDS011;10706;49.036;12.112;2023-08-12T11:47:46;4.05;;;2.05;;
21095;SDS011;10706;49.036;12.112;2023-08-12T11:50:17;4.45;;;2.10;;
21095;SDS011;10706;49.036;12.112;2023-08-12T11:52:47;6.78;;;2.00;;
21095;SDS011;10706;49.036;12.112;2023-08-12T11:55:14;9.55;;;2.30;;
21095;SDS011;10706;49.036;12.112;2023-08-12T11:57:41;3.88;;;1.92;;
21095;SDS011;10706;49.036;12.112;2023-08-12T12:00:11;4.05;;;2.05;;
21095;SDS011;10706;49.036;12.112;2023-08-12T12:02:48;4.18;;;1.80;;
21095;SDS011;10706;49.036;12.112;2023-08-12T12:05:23;6.28;;;2.35;;
21095;SDS011;10706;49.036;12.112;2023-08-12T12:11:03;5.50;;;2.00;;
21095;SDS011;10706;49.036;12.112;2023-08-12T12:13:37;6.60;;;2.35;;
21095;SDS011;10706;49.036;12.112;2023-08-12T12:16:23;7.63;;;1.95;;
21095;SDS011;10706;49.036;12.112;2023-08-12T12:18:56;7.32;;;1.85;;
21095;SDS011;10706;49.036;12.112;2023-08-12T12:21:23;4.38;;;1.90;;
21095;SDS011;10706;49.036;12.112;2023-08-12T12:23:52;9.15;;;2.00;;
21095;SDS011;10706;49.036;12.112;2023-08-12T12:26:18;3.60;;;1.70;;
21095;SDS011;10706;49.036;12.112;2023-08-12T12:28:45;3.55;;;1.70;;
21095;SDS011;10706;49.036;12.112;2023-08-12T12:31:11;3.58;;;1.60;;
21095;SDS011;10706;49.036;12.112;2023-08-12T12:33:36;5.55;;;1.75;;
21095;SDS011;10706;49.036;12.112;2023-08-12T12:36:02;4.35;;;1.80;;
21095;SDS011;10706;49.036;12.112;2023-08-12T12:38:28;5.00;;;2.35;;
21095;SDS011;10706;49.036;12.112;2023-08-12T12:40:54;5.65;;;1.88;;
21095;SDS011;10706;49.036;12.112;2023-08-12T12:43:20;5.43;;;1.88;;
21095;SDS011;10706;49.036;12.112;2023-08-12T12:45:45;4.28;;;1.80;;
21095;SDS011;10706;49.036;12.112;2023-08-12T12:48:11;4.93;;;1.90;;
21095;SDS011;10706;49.036;12.112;2023-08-12T12:50:37;5.50;;;2.10;;
21095;SDS011;10706;49.036;12.112;2023-08-12T12:53:03;5.50;;;1.75;;
21095;SDS011;10706;49.036;12.112;2023-08-12T12:55:29;5.40;;;2.10;;
21095;SDS011;10706;49.036;12.112;2023-08-12T12:57:54;5.57;;;2.03;;
21095;SDS011;10706;49.036;12.112;2023-08-12T13:00:20;2.47;;;1.67;;
21095;SDS011;10706;49.036;12.112;2023-08-12T13:02:49;6.22;;;2.10;;
21095;SDS011;10706;49.036;12.112;2023-08-12T13:05:15;2.72;;;1.70;;
21095;SDS011;10706;49.036;12.112;2023-08-12T13:07:41;6.80;;;1.75;;
21095;SDS011;10706;49.036;12.112;2023-08-12T13:10:10;4.60;;;2.10;;
21095;SDS011;10706;49.036;12.112;2023-08-12T13:12:36;4.40;;;1.73;;
21095;SDS011;10706;49.036;12.112;2023-08-12T13:15:02;2.85;;;1.60;;
21095;SDS011;10706;49.036;12.112;2023-08-12T13:17:28;6.22;;;1.92;;
21095;SDS011;10706;49.036;12.112;2023-08-12T13:19:54;5.55;;;1.80;;
21095;SDS011;10706;49.036;12.112;2023-08-12T13:22:20;2.63;;;1.55;;
21095;SDS011;10706;49.036;12.112;2023-08-12T13:24:46;3.50;;;1.70;;
21095;SDS011;10706;49.036;12.112;2023-08-12T13:27:12;4.93;;;2.00;;
21095;SDS011;10706;49.036;12.112;2023-08-12T13:29:38;3.50;;;1.67;;
21095;SDS011;10706;49.036;12.112;2023-08-12T13:32:04;4.28;;;1.90;;
21095;SDS011;10706;49.036;12.112;2023-08-12T13:34:33;6.57;;;1.90;;
21095;SDS011;10706;49.036;12.112;2023-08-12T13:37:00;3.35;;;1.70;;
21095;SDS011;10706;49.036;12.112;2023-08-12T13:39:26;5.07;;;1.60;;
21095;SDS011;10706;49.036;12.112;2023-08-12T13:41:52;4.30;;;1.92;;
21095;SDS011;10706;49.036;12.112;2023-08-12T13:44:19;3.92;;;1.50;;
21095;SDS011;10706;49.036;12.112;2023-08-12T13:46:46;3.10;;;1.60;;
21095;SDS011;10706;49.036;12.112;2023-08-12T13:49:11;3.70;;;1.90;;
21095;SDS011;10706;49.036;12.112;2023-08-12T13:51:45;4.80;;;1.95;;
21095;SDS011;10706;49.036;12.112;2023-08-12T13:54:11;6.90;;;1.92;;
21095;SDS011;10706;49.036;12.112;2023-08-12T13:56:37;4.18;;;1.85;;
21095;SDS011;10706;49.036;12.112;2023-08-12T13:59:05;2.78;;;1.70;;
21095;SDS011;10706;49.036;12.112;2023-08-12T14:01:31;4.88;;;2.40;;
21095;SDS011;10706;49.036;12.112;2023-08-12T14:03:57;2.80;;;1.48;;
21095;SDS011;10706;49.036;12.112;2023-08-12T14:06:23;3.80;;;1.75;;
21095;SDS011;10706;49.036;12.112;2023-08-12T14:08:49;3.67;;;1.75;;
21095;SDS011;10706;49.036;12.112;2023-08-12T14:11:15;4.10;;;1.98;;
21095;SDS011;10706;49.036;12.112;2023-08-12T14:13:42;6.82;;;2.10;;
21095;SDS011;10706;49.036;12.112;2023-08-12T14:16:08;3.38;;;1.63;;
21095;SDS011;10706;49.036;12.112;2023-08-12T14:18:34;6.47;;;2.30;;
21095;SDS011;10706;49.036;12.112;2023-08-12T14:21:00;4.05;;;1.80;;
21095;SDS011;10706;49.036;12.112;2023-08-12T14:23:26;5.20;;;1.88;;
21095;SDS011;10706;49.036;12.112;2023-08-12T14:25:52;4.57;;;2.03;;
21095;SDS011;10706;49.036;12.112;2023-08-12T14:28:18;4.60;;;1.90;;
21095;SDS011;10706;49.036;12.112;2023-08-12T14:30:44;3.15;;;1.73;;
21095;SDS011;10706;49.036;12.112;2023-08-12T14:33:11;6.43;;;1.85;;
21095;SDS011;10706;49.036;12.112;2023-08-12T14:35:37;5.10;;;2.10;;
21095;SDS011;10706;49.036;12.112;2023-08-12T14:38:03;2.97;;;1.83;;
21095;SDS011;10706;49.036;12.112;2023-08-12T14:40:29;4.75;;;1.80;;
21095;SDS011;10706;49.036;12.112;2023-08-12T14:42:55;6.82;;;2.00;;
21095;SDS011;10706;49.036;12.112;2023-08-12T14:45:21;6.53;;;1.88;;
21095;SDS011;10706;49.036;12.112;2023-08-12T14:47:47;6.97;;;1.90;;
21095;SDS011;10706;49.036;12.112;2023-08-12T14:50:13;6.72;;;1.90;;
21095;SDS011;10706;49.036;12.112;2023-08-12T14:52:39;5.00;;;1.95;;
21095;SDS011;10706;49.036;12.112;2023-08-12T14:55:05;4.90;;;2.20;;